sensor_id;sensor_type;location;lat;lon;timestamp;pressure;altitude;pressure_sealevel;temperature;humidity
67397;BME280;57728;50.448;18.824;2024-02-15T00:00:13;98341.94;;;8.63;64.92
67397;BME280;57728;50.448;18.824;2024-02-15T00:02:17;98341.94;;;8.63;64.96
67397;BME280;57728;50.448;18.824;2024-02-15T00:04:18;98338.81;;;8.59;64.93
67397;BME280;57728;50.448;18.824;2024-02-15T00:06:19;98343.19;;;8.60;64.96
67397;BME280;57728;50.448;18.824;2024-02-15T00:08:21;98346.13;;;8.59;65.00
67397;BME280;57728;50.448;18.824;2024-02-15T00:10:22;98346.34;;;8.57;64.90
67397;BME280;57728;50.448;18.824;2024-02-15T00:12:25;98342.16;;;8.55;65.10
67397;BME280;57728;50.448;18.824;2024-02-15T00:14:27;98336.94;;;8.53;65.15
67397;BME280;57728;50.448;18.824;2024-02-15T00:16:29;98356.59;;;8.55;65.18
67397;BME280;57728;50.448;18.824;2024-02-15T00:18:31;98351.53;;;8.52;65.18
67397;BME280;57728;50.448;18.824;2024-02-15T00:20:33;98350.50;;;8.53;65.26
67397;BME280;57728;50.448;18.824;2024-02-15T00:22:36;98345.50;;;8.50;65.20
67397;BME280;57728;50.448;18.824;2024-02-15T00:24:37;98346.13;;;8.52;65.29
67397;BME280;57728;50.448;18.824;2024-02-15T00:26:40;98347.81;;;8.53;65.21
67397;BME280;57728;50.448;18.824;2024-02-15T00:28:42;98354.47;;;8.57;65.21
67397;BME280;57728;50.448;18.824;2024-02-15T00:30:43;98360.72;;;8.58;65.24
67397;BME280;57728;50.448;18.824;2024-02-15T00:32:45;98366.16;;;8.58;65.14
67397;BME280;57728;50.448;18.824;2024-02-15T00:34:47;98367.84;;;8.59;65.24
67397;BME280;57728;50.448;18.824;2024-02-15T00:36:48;98364.50;;;8.57;65.16
67397;BME280;57728;50.448;18.824;2024-02-15T00:38:50;98369.94;;;8.57;65.08
67397;BME280;57728;50.448;18.824;2024-02-15T00:40:52;98370.75;;;8.57;65.22
67397;BME280;57728;50.448;18.824;2024-02-15T00:42:54;98329.22;;;8.30;65.16
67397;BME280;57728;50.448;18.824;2024-02-15T00:44:56;98372.44;;;8.58;65.04
67397;BME280;57728;50.448;18.824;2024-02-15T00:46:57;98372.44;;;8.58;65.13
67397;BME280;57728;50.448;18.824;2024-02-15T00:48:58;98372.22;;;8.60;65.10
67397;BME280;57728;50.448;18.824;2024-02-15T00:51:01;98366.16;;;8.58;65.18
67397;BME280;57728;50.448;18.824;2024-02-15T00:53:02;98363.44;;;8.58;65.14
67397;BME280;57728;50.448;18.824;2024-02-15T00:55:04;98369.94;;;8.57;65.15
67397;BME280;57728;50.448;18.824;2024-02-15T00:57:06;98373.47;;;8.57;65.21
67397;BME280;57728;50.448;18.824;2024-02-15T00:59:07;98368.06;;;8.57;65.16
67397;BME280;57728;50.448;18.824;2024-02-15T01:01:08;98382.22;;;8.59;65.20
67397;BME280;57728;50.448;18.824;2024-02-15T01:03:10;98376.81;;;8.59;65.30
67397;BME280;57728;50.448;18.824;2024-02-15T01:05:11;98372.88;;;8.55;65.43
67397;BME280;57728;50.448;18.824;2024-02-15T01:07:16;98374.09;;;8.59;65.17
67397;BME280;57728;50.448;18.824;2024-02-15T01:09:18;98373.47;;;8.57;65.36
67397;BME280;57728;50.448;18.824;2024-02-15T01:11:19;98361.56;;;8.52;65.20
67397;BME280;57728;50.448;18.824;2024-02-15T01:13:20;98363.66;;;8.56;65.33
67397;BME280;57728;50.448;18.824;2024-02-15T01:15:22;98370.16;;;8.55;65.35
67397;BME280;57728;50.448;18.824;2024-02-15T01:17:23;98367.84;;;8.52;65.43
67397;BME280;57728;50.448;18.824;2024-02-15T01:19:24;98373.91;;;8.54;65.50
67397;BME280;57728;50.448;18.824;2024-02-15T01:21:26;98362.00;;;8.55;65.42
67397;BME280;57728;50.448;18.824;2024-02-15T01:23:27;98363.66;;;8.56;65.57
67397;BME280;57728;50.448;18.824;2024-02-15T01:25:28;98348.22;;;8.50;65.60
67397;BME280;57728;50.448;18.824;2024-02-15T01:27:31;98357.63;;;8.54;65.51
67397;BME280;57728;50.448;18.824;2024-02-15T01:29:33;98355.94;;;8.53;65.65
67397;BME280;57728;50.448;18.824;2024-02-15T01:31:34;98352.41;;;8.53;65.61
67397;BME280;57728;50.448;18.824;2024-02-15T01:33:37;98351.53;;;8.52;65.52
67397;BME280;57728;50.448;18.824;2024-02-15T01:35:38;98352.63;;;8.51;65.60
67397;BME280;57728;50.448;18.824;2024-02-15T01:37:39;98337.38;;;8.50;65.73
67397;BME280;57728;50.448;18.824;2024-02-15T01:39:42;98348.44;;;8.55;65.61
67397;BME280;57728;50.448;18.824;2024-02-15T01:41:48;98327.34;;;8.44;65.54
67397;BME280;57728;50.448;18.824;2024-02-15T01:43:51;98339.88;;;8.58;65.57
67397;BME280;57728;50.448;18.824;2024-02-15T01:45:55;98316.47;;;8.44;65.59
67397;BME280;57728;50.448;18.824;2024-02-15T01:47:58;98340.28;;;8.62;65.50
67397;BME280;57728;50.448;18.824;2024-02-15T01:49:59;98338.63;;;8.61;65.52
67397;BME280;57728;50.448;18.824;2024-02-15T01:52:02;98336.72;;;8.62;65.55
67397;BME280;57728;50.448;18.824;2024-02-15T01:54:06;98341.34;;;8.61;65.47
67397;BME280;57728;50.448;18.824;2024-02-15T01:56:08;98346.94;;;8.59;65.55
67397;BME280;57728;50.448;18.824;2024-02-15T01:58:13;98339.03;;;8.58;65.62
67397;BME280;57728;50.448;18.824;2024-02-15T02:00:18;98344.88;;;8.62;65.45
67397;BME280;57728;50.448;18.824;2024-02-15T02:02:20;98341.94;;;8.63;65.55
67397;BME280;57728;50.448;18.824;2024-02-15T02:04:26;98327.13;;;8.59;65.48
67397;BME280;57728;50.448;18.824;2024-02-15T02:06:28;98334.22;;;8.67;65.36
67397;BME280;57728;50.448;18.824;2024-02-15T02:08:31;98331.50;;;8.67;65.37
67397;BME280;57728;50.448;18.824;2024-02-15T02:10:33;98327.13;;;8.66;65.49
67397;BME280;57728;50.448;18.824;2024-02-15T02:12:34;98327.13;;;8.66;65.48
67397;BME280;57728;50.448;18.824;2024-02-15T02:14:35;98327.13;;;8.66;65.60
67397;BME280;57728;50.448;18.824;2024-02-15T02:16:37;98329.41;;;8.69;65.39
67397;BME280;57728;50.448;18.824;2024-02-15T02:18:39;98321.28;;;8.69;65.49
67397;BME280;57728;50.448;18.824;2024-02-15T02:20:41;98318.56;;;8.69;65.50
67397;BME280;57728;50.448;18.824;2024-02-15T02:22:49;98321.28;;;8.69;65.49
67397;BME280;57728;50.448;18.824;2024-02-15T02:25:05;98316.66;;;8.69;65.61
67397;BME280;57728;50.448;18.824;2024-02-15T02:27:11;98316.88;;;8.68;65.47
67397;BME280;57728;50.448;18.824;2024-02-15T02:29:15;98265.56;;;8.33;65.52
67397;BME280;57728;50.448;18.824;2024-02-15T02:31:16;98315.03;;;8.62;65.58
67397;BME280;57728;50.448;18.824;2024-02-15T02:33:19;98307.91;;;8.60;65.62
67397;BME280;57728;50.448;18.824;2024-02-15T02:35:23;98302.69;;;8.59;65.85
67397;BME280;57728;50.448;18.824;2024-02-15T02:37:24;98305.63;;;8.57;65.69
67397;BME280;57728;50.448;18.824;2024-02-15T02:39:26;98305.19;;;8.54;65.93
67397;BME280;57728;50.448;18.824;2024-02-15T02:41:32;98312.72;;;8.52;66.05
67397;BME280;57728;50.448;18.824;2024-02-15T02:43:33;98306.69;;;8.50;66.17
67397;BME280;57728;50.448;18.824;2024-02-15T02:45:36;98307.09;;;8.47;66.25
67397;BME280;57728;50.448;18.824;2024-02-15T02:47:37;98305.22;;;8.47;66.29
67397;BME280;57728;50.448;18.824;2024-02-15T02:49:38;98304.78;;;8.43;66.31
67397;BME280;57728;50.448;18.824;2024-02-15T02:51:40;98312.31;;;8.41;66.54
67397;BME280;57728;50.448;18.824;2024-02-15T02:53:41;98311.06;;;8.37;66.58
67397;BME280;57728;50.448;18.824;2024-02-15T02:55:42;98310.41;;;8.35;66.74
67397;BME280;57728;50.448;18.824;2024-02-15T02:57:44;98306.66;;;8.30;66.89
67397;BME280;57728;50.448;18.824;2024-02-15T02:59:45;98324.19;;;8.34;66.90
67397;BME280;57728;50.448;18.824;2024-02-15T03:01:48;98311.47;;;8.34;66.92
67397;BME280;57728;50.448;18.824;2024-02-15T03:03:50;98310.63;;;8.34;67.00
67397;BME280;57728;50.448;18.824;2024-02-15T03:05:52;98322.53;;;8.33;67.01
67397;BME280;57728;50.448;18.824;2024-02-15T03:07:54;98316.91;;;8.34;67.09
67397;BME280;57728;50.448;18.824;2024-02-15T03:09:56;98316.06;;;8.34;67.06
67397;BME280;57728;50.448;18.824;2024-02-15T03:11:57;98316.06;;;8.34;67.15
67397;BME280;57728;50.448;18.824;2024-02-15T03:13:58;98318.16;;;8.32;67.29
67397;BME280;57728;50.448;18.824;2024-02-15T03:16:01;98330.25;;;8.36;67.11
67397;BME280;57728;50.448;18.824;2024-02-15T03:18:02;98334.00;;;8.35;67.19
67397;BME280;57728;50.448;18.824;2024-02-15T03:20:09;98330.66;;;8.39;67.22
67397;BME280;57728;50.448;18.824;2024-02-15T03:22:27;98326.91;;;8.40;67.21
67397;BME280;57728;50.448;18.824;2024-02-15T03:24:30;98319.59;;;8.41;67.22
67397;BME280;57728;50.448;18.824;2024-02-15T03:26:31;98329.41;;;8.42;67.05
67397;BME280;57728;50.448;18.824;2024-02-15T03:28:40;98327.50;;;8.42;67.08
67397;BME280;57728;50.448;18.824;2024-02-15T03:30:41;98330.03;;;8.44;67.03
67397;BME280;57728;50.448;18.824;2024-02-15T03:32:43;98318.56;;;8.42;67.10
67397;BME280;57728;50.448;18.824;2024-02-15T03:34:45;98320.22;;;8.43;67.08
67397;BME280;57728;50.448;18.824;2024-02-15T03:36:47;98326.09;;;8.40;67.11
67397;BME280;57728;50.448;18.824;2024-02-15T03:38:54;98312.91;;;8.37;67.06
67397;BME280;57728;50.448;18.824;2024-02-15T03:40:57;98328.59;;;8.41;67.16
67397;BME280;57728;50.448;18.824;2024-02-15T03:42:59;98322.50;;;8.39;67.21
67397;BME280;57728;50.448;18.824;2024-02-15T03:45:00;98325.22;;;8.39;67.23
67397;BME280;57728;50.448;18.824;2024-02-15T03:47:02;98322.72;;;8.38;67.26
67397;BME280;57728;50.448;18.824;2024-02-15T03:49:04;98320.00;;;8.38;67.34
67397;BME280;57728;50.448;18.824;2024-02-15T03:51:06;98317.72;;;8.35;67.23
67397;BME280;57728;50.448;18.824;2024-02-15T03:53:09;98266.41;;;8.06;67.20
67397;BME280;57728;50.448;18.824;2024-02-15T03:55:11;98318.16;;;8.38;67.21
67397;BME280;57728;50.448;18.824;2024-02-15T03:57:13;98318.16;;;8.38;67.13
67397;BME280;57728;50.448;18.824;2024-02-15T03:59:15;98325.22;;;8.39;67.19
67397;BME280;57728;50.448;18.824;2024-02-15T04:01:16;98322.50;;;8.39;67.12
67397;BME280;57728;50.448;18.824;2024-02-15T04:03:18;98313.97;;;8.36;67.23
67397;BME280;57728;50.448;18.824;2024-02-15T04:05:20;98323.97;;;8.35;67.25
67397;BME280;57728;50.448;18.824;2024-02-15T04:07:23;98305.63;;;8.31;67.13
67397;BME280;57728;50.448;18.824;2024-02-15T04:09:27;98324.41;;;8.39;67.21
67397;BME280;57728;50.448;18.824;2024-02-15T04:11:29;98328.16;;;8.38;67.23
67397;BME280;57728;50.448;18.824;2024-02-15T04:13:30;98319.19;;;8.31;67.20
67397;BME280;57728;50.448;18.824;2024-02-15T04:15:31;98327.53;;;8.36;67.29
67397;BME280;57728;50.448;18.824;2024-02-15T04:17:36;98321.25;;;8.35;67.22
67397;BME280;57728;50.448;18.824;2024-02-15T04:19:37;98316.06;;;8.34;67.28
67397;BME280;57728;50.448;18.824;2024-02-15T04:21:38;98318.16;;;8.32;67.25
67397;BME280;57728;50.448;18.824;2024-02-15T04:23:41;98270.16;;;7.99;67.37
67397;BME280;57728;50.448;18.824;2024-02-15T04:25:42;98316.47;;;8.31;67.43
67397;BME280;57728;50.448;18.824;2024-02-15T04:27:48;98321.91;;;8.31;67.39
67397;BME280;57728;50.448;18.824;2024-02-15T04:29:50;98319.59;;;8.27;67.37
67397;BME280;57728;50.448;18.824;2024-02-15T04:31:51;98323.16;;;8.35;67.35
67397;BME280;57728;50.448;18.824;2024-02-15T04:33:55;98314.78;;;8.30;67.43
67397;BME280;57728;50.448;18.824;2024-02-15T04:35:57;98322.13;;;8.36;67.38
67397;BME280;57728;50.448;18.824;2024-02-15T04:37:59;98323.75;;;8.37;67.27
67397;BME280;57728;50.448;18.824;2024-02-15T04:40:00;98321.91;;;8.37;67.34
67397;BME280;57728;50.448;18.824;2024-02-15T04:42:11;98312.09;;;8.30;67.30
67397;BME280;57728;50.448;18.824;2024-02-15T04:44:12;98320.00;;;8.38;67.13
67397;BME280;57728;50.448;18.824;2024-02-15T04:46:13;98320.00;;;8.38;67.32
67397;BME280;57728;50.448;18.824;2024-02-15T04:48:15;98321.91;;;8.37;67.30
67397;BME280;57728;50.448;18.824;2024-02-15T04:50:18;98331.50;;;8.40;67.25
67397;BME280;57728;50.448;18.824;2024-02-15T04:52:19;98325.88;;;8.41;67.28
67397;BME280;57728;50.448;18.824;2024-02-15T04:54:25;98332.75;;;8.44;67.27
67397;BME280;57728;50.448;18.824;2024-02-15T04:56:27;98316.06;;;8.34;67.20
67397;BME280;57728;50.448;18.824;2024-02-15T04:58:28;98329.88;;;8.46;67.10
67397;BME280;57728;50.448;18.824;2024-02-15T05:00:30;98324.44;;;8.46;67.08
67397;BME280;57728;50.448;18.824;2024-02-15T05:02:31;98329.88;;;8.46;67.06
67397;BME280;57728;50.448;18.824;2024-02-15T05:04:32;98330.69;;;8.46;67.10
67397;BME280;57728;50.448;18.824;2024-02-15T05:06:38;98336.50;;;8.43;67.13
67397;BME280;57728;50.448;18.824;2024-02-15T05:08:43;98335.47;;;8.44;67.08
67397;BME280;57728;50.448;18.824;2024-02-15T05:10:59;98306.03;;;8.27;67.09
67397;BME280;57728;50.448;18.824;2024-02-15T05:13:00;98339.03;;;8.45;67.25
67397;BME280;57728;50.448;18.824;2024-02-15T05:15:02;98337.16;;;8.45;67.19
67397;BME280;57728;50.448;18.824;2024-02-15T05:17:10;98345.47;;;8.43;67.18
67397;BME280;57728;50.448;18.824;2024-02-15T05:19:17;98344.00;;;8.41;67.16
67397;BME280;57728;50.448;18.824;2024-02-15T05:21:19;98334.63;;;8.37;67.20
67397;BME280;57728;50.448;18.824;2024-02-15T05:23:20;98346.09;;;8.39;67.31
67397;BME280;57728;50.448;18.824;2024-02-15T05:25:23;98350.72;;;8.38;67.25
67397;BME280;57728;50.448;18.824;2024-02-15T05:27:24;98356.13;;;8.38;67.56
67397;BME280;57728;50.448;18.824;2024-02-15T05:29:25;98347.56;;;8.35;67.70
67397;BME280;57728;50.448;18.824;2024-02-15T05:31:27;98345.69;;;8.42;67.71
67397;BME280;57728;50.448;18.824;2024-02-15T05:33:28;98349.91;;;8.45;67.70
67397;BME280;57728;50.448;18.824;2024-02-15T05:35:32;98348.88;;;8.46;67.75
67397;BME280;57728;50.448;18.824;2024-02-15T05:37:34;98350.28;;;8.48;67.63
67397;BME280;57728;50.448;18.824;2024-02-15T05:39:35;98354.69;;;8.49;67.43
67397;BME280;57728;50.448;18.824;2024-02-15T05:41:36;98364.72;;;8.49;67.46
67397;BME280;57728;50.448;18.824;2024-02-15T05:43:39;98351.13;;;8.42;67.24
67397;BME280;57728;50.448;18.824;2024-02-15T05:45:42;98350.72;;;8.45;67.36
67397;BME280;57728;50.448;18.824;2024-02-15T05:47:44;98358.22;;;8.43;67.41
67397;BME280;57728;50.448;18.824;2024-02-15T05:49:46;98364.47;;;8.43;67.39
67397;BME280;57728;50.448;18.824;2024-02-15T05:51:48;98362.44;;;8.46;67.47
67397;BME280;57728;50.448;18.824;2024-02-15T05:53:49;98358.66;;;8.47;67.43
67397;BME280;57728;50.448;18.824;2024-02-15T05:55:51;98363.25;;;8.46;67.40
67397;BME280;57728;50.448;18.824;2024-02-15T05:57:52;98363.66;;;8.43;67.34
67397;BME280;57728;50.448;18.824;2024-02-15T05:59:54;98362.78;;;8.42;67.49
67397;BME280;57728;50.448;18.824;2024-02-15T06:01:56;98370.53;;;8.39;67.59
67397;BME280;57728;50.448;18.824;2024-02-15T06:03:57;98367.00;;;8.38;67.62
67397;BME280;57728;50.448;18.824;2024-02-15T06:05:59;98362.59;;;8.37;67.48
67397;BME280;57728;50.448;18.824;2024-02-15T06:08:03;98363.84;;;8.35;67.69
67397;BME280;57728;50.448;18.824;2024-02-15T06:10:06;98362.81;;;8.36;67.81
67397;BME280;57728;50.448;18.824;2024-02-15T06:12:08;98354.66;;;8.22;67.71
67397;BME280;57728;50.448;18.824;2024-02-15T06:14:10;98373.88;;;8.34;67.83
67397;BME280;57728;50.448;18.824;2024-02-15T06:16:13;98377.41;;;8.35;67.83
67397;BME280;57728;50.448;18.824;2024-02-15T06:18:15;98383.25;;;8.32;67.87
67397;BME280;57728;50.448;18.824;2024-02-15T06:20:18;98374.09;;;8.33;67.80
67397;BME280;57728;50.448;18.824;2024-02-15T06:22:20;98381.16;;;8.40;67.88
67397;BME280;57728;50.448;18.824;2024-02-15T06:24:21;98375.97;;;8.39;67.86
67397;BME280;57728;50.448;18.824;2024-02-15T06:26:25;98376.56;;;8.41;67.72
67397;BME280;57728;50.448;18.824;2024-02-15T06:28:26;98374.50;;;8.43;67.84
67397;BME280;57728;50.448;18.824;2024-02-15T06:30:49;98379.53;;;8.46;67.84
67397;BME280;57728;50.448;18.824;2024-02-15T06:33:09;98372.59;;;8.43;67.72
67397;BME280;57728;50.448;18.824;2024-02-15T06:35:29;98385.41;;;8.50;67.74
67397;BME280;57728;50.448;18.824;2024-02-15T06:37:48;98385.19;;;8.51;67.72
67397;BME280;57728;50.448;18.824;2024-02-15T06:40:09;98385.41;;;8.50;67.64
67397;BME280;57728;50.448;18.824;2024-02-15T06:42:15;98384.97;;;8.46;67.63
67397;BME280;57728;50.448;18.824;2024-02-15T06:44:18;98383.28;;;8.52;67.53
67397;BME280;57728;50.448;18.824;2024-02-15T06:46:21;98382.47;;;8.51;67.58
67397;BME280;57728;50.448;18.824;2024-02-15T06:48:22;98380.78;;;8.50;67.53
67397;BME280;57728;50.448;18.824;2024-02-15T06:50:23;98378.06;;;8.50;67.66
67397;BME280;57728;50.448;18.824;2024-02-15T06:52:25;98381.00;;;8.49;67.59
67397;BME280;57728;50.448;18.824;2024-02-15T06:54:26;98382.84;;;8.48;67.65
67397;BME280;57728;50.448;18.824;2024-02-15T06:56:27;98386.63;;;8.47;67.62
67397;BME280;57728;50.448;18.824;2024-02-15T06:58:29;98390.38;;;8.46;67.60
67397;BME280;57728;50.448;18.824;2024-02-15T07:00:30;98390.38;;;8.46;67.76
67397;BME280;57728;50.448;18.824;2024-02-15T07:02:31;98386.63;;;8.47;67.79
67397;BME280;57728;50.448;18.824;2024-02-15T07:04:34;98382.84;;;8.48;67.64
67397;BME280;57728;50.448;18.824;2024-02-15T07:06:36;98377.44;;;8.48;67.67
67397;BME280;57728;50.448;18.824;2024-02-15T07:08:38;98383.06;;;8.53;67.69
67397;BME280;57728;50.448;18.824;2024-02-15T07:10:41;98387.88;;;8.58;67.60
67397;BME280;57728;50.448;18.824;2024-02-15T07:12:43;98387.47;;;8.61;67.63
67397;BME280;57728;50.448;18.824;2024-02-15T07:14:45;98384.13;;;8.66;67.58
67397;BME280;57728;50.448;18.824;2024-02-15T07:16:49;98385.78;;;8.73;67.56
67397;BME280;57728;50.448;18.824;2024-02-15T07:18:51;98382.03;;;8.81;67.55
67397;BME280;57728;50.448;18.824;2024-02-15T07:20:52;98379.09;;;8.89;67.08
67397;BME280;57728;50.448;18.824;2024-02-15T07:22:54;98385.72;;;9.00;66.77
67397;BME280;57728;50.448;18.824;2024-02-15T07:24:56;98378.22;;;9.02;66.59
67397;BME280;57728;50.448;18.824;2024-02-15T07:26:57;98370.47;;;9.06;66.28
67397;BME280;57728;50.448;18.824;2024-02-15T07:28:58;98380.69;;;9.17;66.17
67397;BME280;57728;50.448;18.824;2024-02-15T07:31:00;98380.25;;;9.27;66.07
67397;BME280;57728;50.448;18.824;2024-02-15T07:33:03;98382.28;;;9.38;65.81
67397;BME280;57728;50.448;18.824;2024-02-15T07:35:05;98380.16;;;9.47;65.73
67397;BME280;57728;50.448;18.824;2024-02-15T07:37:09;98375.94;;;9.58;65.64
67397;BME280;57728;50.448;18.824;2024-02-15T07:39:10;98385.13;;;9.63;65.25
67397;BME280;57728;50.448;18.824;2024-02-15T07:41:17;98377.16;;;9.69;65.17
67397;BME280;57728;50.448;18.824;2024-02-15T07:43:20;98384.03;;;9.71;64.92
67397;BME280;57728;50.448;18.824;2024-02-15T07:45:21;98379.00;;;9.75;65.05
67397;BME280;57728;50.448;18.824;2024-02-15T07:47:23;98366.63;;;9.79;64.96
67397;BME280;57728;50.448;18.824;2024-02-15T07:49:25;98352.25;;;9.72;64.92
67397;BME280;57728;50.448;18.824;2024-02-15T07:51:26;98367.66;;;9.85;64.76
67397;BME280;57728;50.448;18.824;2024-02-15T07:53:29;98372.28;;;9.84;64.66
67397;BME280;57728;50.448;18.824;2024-02-15T07:55:30;98372.06;;;9.86;64.76
67397;BME280;57728;50.448;18.824;2024-02-15T07:57:31;98371.84;;;9.87;64.86
67397;BME280;57728;50.448;18.824;2024-02-15T07:59:33;98368.47;;;9.85;64.84
67397;BME280;57728;50.448;18.824;2024-02-15T08:01:34;98376.16;;;9.95;64.95
67397;BME280;57728;50.448;18.824;2024-02-15T08:03:35;98358.44;;;9.86;64.84
67397;BME280;57728;50.448;18.824;2024-02-15T08:05:37;98380.47;;;10.09;64.98
67397;BME280;57728;50.448;18.824;2024-02-15T08:07:43;98373.50;;;10.20;64.75
67397;BME280;57728;50.448;18.824;2024-02-15T08:09:45;98370.06;;;10.31;64.69
67397;BME280;57728;50.448;18.824;2024-02-15T08:11:48;98366.28;;;10.39;64.54
67397;BME280;57728;50.448;18.824;2024-02-15T08:13:51;98367.44;;;10.50;64.52
67397;BME280;57728;50.448;18.824;2024-02-15T08:15:55;98370.66;;;10.65;64.20
67397;BME280;57728;50.448;18.824;2024-02-15T08:17:57;98375.00;;;10.73;63.91
67397;BME280;57728;50.448;18.824;2024-02-15T08:19:58;98373.41;;;10.84;63.93
67397;BME280;57728;50.448;18.824;2024-02-15T08:22:05;98376.09;;;10.91;63.62
67397;BME280;57728;50.448;18.824;2024-02-15T08:24:07;98374.53;;;11.01;63.37
67397;BME280;57728;50.448;18.824;2024-02-15T08:26:10;98377.38;;;11.07;62.87
67397;BME280;57728;50.448;18.824;2024-02-15T08:28:14;98372.38;;;11.04;62.66
67397;BME280;57728;50.448;18.824;2024-02-15T08:30:17;98376.63;;;10.99;62.95
67397;BME280;57728;50.448;18.824;2024-02-15T08:32:18;98371.78;;;11.01;62.91
67397;BME280;57728;50.448;18.824;2024-02-15T08:34:19;98382.25;;;11.05;62.80
67397;BME280;57728;50.448;18.824;2024-02-15T08:36:22;98377.56;;;11.12;62.76
67397;BME280;57728;50.448;18.824;2024-02-15T08:38:23;98374.59;;;11.13;62.72
67397;BME280;57728;50.448;18.824;2024-02-15T08:40:24;98380.66;;;11.34;63.01
67397;BME280;57728;50.448;18.824;2024-02-15T08:42:26;98377.41;;;11.44;62.29
67397;BME280;57728;50.448;18.824;2024-02-15T08:44:27;98375.66;;;11.49;61.84
67397;BME280;57728;50.448;18.824;2024-02-15T08:46:29;98377.25;;;11.57;61.91
67397;BME280;57728;50.448;18.824;2024-02-15T08:48:30;98380.34;;;11.61;61.34
67397;BME280;57728;50.448;18.824;2024-02-15T08:50:32;98382.97;;;11.67;61.55
67397;BME280;57728;50.448;18.824;2024-02-15T08:52:33;98374.22;;;11.65;61.11
67397;BME280;57728;50.448;18.824;2024-02-15T08:54:36;98389.19;;;11.75;61.17
67397;BME280;57728;50.448;18.824;2024-02-15T08:56:39;98393.72;;;11.81;60.98
67397;BME280;57728;50.448;18.824;2024-02-15T08:58:40;98391.47;;;11.96;60.83
67397;BME280;57728;50.448;18.824;2024-02-15T09:00:44;98381.81;;;12.24;60.45
67397;BME280;57728;50.448;18.824;2024-02-15T09:02:46;98389.50;;;12.69;59.62
67397;BME280;57728;50.448;18.824;2024-02-15T09:04:47;98383.56;;;13.44;59.18
67397;BME280;57728;50.448;18.824;2024-02-15T09:06:50;98381.97;;;14.00;56.90
67397;BME280;57728;50.448;18.824;2024-02-15T09:08:51;98383.63;;;14.47;56.62
67397;BME280;57728;50.448;18.824;2024-02-15T09:10:52;98388.34;;;15.20;56.01
67397;BME280;57728;50.448;18.824;2024-02-15T09:12:55;98361.59;;;15.71;54.07
67397;BME280;57728;50.448;18.824;2024-02-15T09:14:57;98377.44;;;16.41;52.37
67397;BME280;57728;50.448;18.824;2024-02-15T09:16:58;98385.06;;;16.93;51.32
67397;BME280;57728;50.448;18.824;2024-02-15T09:19:00;98372.63;;;17.28;49.70
67397;BME280;57728;50.448;18.824;2024-02-15T09:21:02;98381.91;;;17.65;48.84
67397;BME280;57728;50.448;18.824;2024-02-15T09:23:05;98377.09;;;18.08;47.98
67397;BME280;57728;50.448;18.824;2024-02-15T09:25:11;98379.38;;;18.42;46.71
67397;BME280;57728;50.448;18.824;2024-02-15T09:27:13;98382.16;;;18.63;46.08
67397;BME280;57728;50.448;18.824;2024-02-15T09:29:14;98376.94;;;18.87;45.75
67397;BME280;57728;50.448;18.824;2024-02-15T09:31:16;98378.31;;;19.10;45.14
67397;BME280;57728;50.448;18.824;2024-02-15T09:33:19;98384.09;;;19.19;44.53
67397;BME280;57728;50.448;18.824;2024-02-15T09:35:22;98372.25;;;19.13;43.77
67397;BME280;57728;50.448;18.824;2024-02-15T09:37:24;98375.25;;;19.27;43.16
67397;BME280;57728;50.448;18.824;2024-02-15T09:39:27;98375.53;;;19.20;42.80
67397;BME280;57728;50.448;18.824;2024-02-15T09:41:28;98381.59;;;19.22;42.21
67397;BME280;57728;50.448;18.824;2024-02-15T09:43:31;98376.63;;;19.19;42.41
67397;BME280;57728;50.448;18.824;2024-02-15T09:45:32;98380.50;;;19.29;42.56
67397;BME280;57728;50.448;18.824;2024-02-15T09:47:36;98376.66;;;19.04;41.63
67397;BME280;57728;50.448;18.824;2024-02-15T09:49:39;98377.25;;;18.90;41.73
67397;BME280;57728;50.448;18.824;2024-02-15T09:51:42;98384.94;;;18.88;42.07
67397;BME280;57728;50.448;18.824;2024-02-15T09:53:44;98379.13;;;18.85;41.90
67397;BME280;57728;50.448;18.824;2024-02-15T09:55:48;98376.09;;;18.81;42.21
67397;BME280;57728;50.448;18.824;2024-02-15T09:57:50;98370.03;;;19.05;41.95
67397;BME280;57728;50.448;18.824;2024-02-15T09:59:51;98374.97;;;19.29;41.86
67397;BME280;57728;50.448;18.824;2024-02-15T10:01:58;98363.31;;;19.42;41.06
67397;BME280;57728;50.448;18.824;2024-02-15T10:04:06;98374.88;;;19.59;41.47
67397;BME280;57728;50.448;18.824;2024-02-15T10:06:07;98376.72;;;19.85;40.27
67397;BME280;57728;50.448;18.824;2024-02-15T10:08:09;98376.19;;;19.88;40.27
67397;BME280;57728;50.448;18.824;2024-02-15T10:10:18;98373.63;;;19.97;39.81
67397;BME280;57728;50.448;18.824;2024-02-15T10:12:21;98375.09;;;19.84;39.68
67397;BME280;57728;50.448;18.824;2024-02-15T10:14:24;98364.03;;;19.84;39.60
67397;BME280;57728;50.448;18.824;2024-02-15T10:16:26;98356.56;;;19.89;40.09
67397;BME280;57728;50.448;18.824;2024-02-15T10:18:27;98367.75;;;20.08;40.26
67397;BME280;57728;50.448;18.824;2024-02-15T10:20:29;98370.91;;;19.91;39.42
67397;BME280;57728;50.448;18.824;2024-02-15T10:22:30;98367.69;;;19.58;39.75
67397;BME280;57728;50.448;18.824;2024-02-15T10:24:32;98368.38;;;19.09;39.96
67397;BME280;57728;50.448;18.824;2024-02-15T10:26:35;98362.88;;;18.68;41.04
67397;BME280;57728;50.448;18.824;2024-02-15T10:28:36;98365.59;;;18.47;41.11
67397;BME280;57728;50.448;18.824;2024-02-15T10:30:40;98358.97;;;18.23;41.50
67397;BME280;57728;50.448;18.824;2024-02-15T10:32:45;98358.41;;;18.10;42.01
67397;BME280;57728;50.448;18.824;2024-02-15T10:34:46;98352.84;;;17.95;42.32
67397;BME280;57728;50.448;18.824;2024-02-15T10:36:47;98365.50;;;17.91;42.42
67397;BME280;57728;50.448;18.824;2024-02-15T10:38:50;98371.81;;;17.86;42.74
67397;BME280;57728;50.448;18.824;2024-02-15T10:41:03;98357.19;;;17.85;42.56
67397;BME280;57728;50.448;18.824;2024-02-15T10:43:10;98363.44;;;17.60;42.67
67397;BME280;57728;50.448;18.824;2024-02-15T10:45:15;98362.44;;;17.29;43.33
67397;BME280;57728;50.448;18.824;2024-02-15T10:47:19;98363.97;;;17.04;43.39